createdAt,value
2017-06-30T00:00:18.375Z,0
2017-06-30T00:00:58.887Z,0
2017-06-30T00:01:39.316Z,0
2017-06-30T00:02:19.825Z,0
2017-06-30T00:03:00.297Z,0
2017-06-30T00:03:40.791Z,0
2017-06-30T00:04:21.290Z,0
2017-06-30T00:05:01.766Z,0
2017-06-30T00:05:42.278Z,0
2017-06-30T00:06:22.763Z,0
2017-06-30T00:07:03.241Z,0
2017-06-30T00:07:43.719Z,0
2017-06-30T00:08:24.203Z,0
2017-06-30T00:09:04.689Z,0
2017-06-30T00:09:45.193Z,0
2017-06-30T00:10:25.682Z,0
2017-06-30T00:11:06.180Z,0
2017-06-30T00:11:46.667Z,0
2017-06-30T00:12:27.156Z,0
2017-06-30T00:13:07.650Z,0
2017-06-30T00:13:48.136Z,0
2017-06-30T00:14:28.605Z,0
2017-06-30T00:15:09.060Z,0
2017-06-30T00:15:49.512Z,0
2017-06-30T00:16:30.001Z,0
2017-06-30T00:17:10.443Z,0
2017-06-30T00:17:50.902Z,0
2017-06-30T00:18:31.362Z,0
2017-06-30T00:19:11.812Z,0
2017-06-30T00:19:52.273Z,0
2017-06-30T00:20:32.725Z,0
2017-06-30T00:21:13.198Z,0
2017-06-30T00:21:53.629Z,0
2017-06-30T00:22:34.106Z,0
2017-06-30T00:24:51.969Z,0
2017-06-30T00:25:32.424Z,0
2017-06-30T00:26:12.898Z,0
2017-06-30T00:26:53.381Z,0
2017-06-30T00:27:33.845Z,0
2017-06-30T00:28:14.362Z,0
2017-06-30T00:28:54.855Z,0
2017-06-30T00:29:35.314Z,0
2017-06-30T00:30:15.786Z,0
2017-06-30T00:30:56.281Z,0
2017-06-30T00:31:36.767Z,0
2017-06-30T00:32:17.251Z,0
2017-06-30T00:32:57.749Z,0
2017-06-30T00:33:38.225Z,0
2017-06-30T00:34:18.716Z,0
2017-06-30T00:34:59.211Z,0
2017-06-30T00:35:39.705Z,0
2017-06-30T00:36:20.179Z,0
2017-06-30T00:37:00.663Z,0
2017-06-30T00:37:41.133Z,0
2017-06-30T00:38:21.603Z,0
2017-06-30T00:39:02.099Z,0
2017-06-30T00:39:42.565Z,0
2017-06-30T00:40:23.022Z,0
2017-06-30T00:41:03.489Z,0
2017-06-30T00:41:43.925Z,0
2017-06-30T00:44:16.928Z,0
2017-06-30T00:44:57.433Z,0
2017-06-30T00:45:37.877Z,0
2017-06-30T00:46:18.375Z,0
2017-06-30T00:46:58.870Z,0
2017-06-30T00:47:39.345Z,0
2017-06-30T00:48:19.803Z,0
2017-06-30T00:49:00.231Z,0
2017-06-30T00:51:33.298Z,0
2017-06-30T00:52:13.785Z,0
2017-06-30T00:52:54.271Z,0
2017-06-30T00:53:34.771Z,0
2017-06-30T00:54:15.266Z,0
2017-06-30T00:54:55.746Z,0
2017-06-30T00:55:36.248Z,0
2017-06-30T00:56:16.727Z,0
2017-06-30T00:56:57.201Z,0
2017-06-30T00:57:37.695Z,0
2017-06-30T00:58:18.170Z,0
2017-06-30T00:58:58.660Z,0
2017-06-30T00:59:39.140Z,0
2017-06-30T01:00:19.595Z,0
2017-06-30T01:01:00.061Z,0
2017-06-30T01:01:40.529Z,0
2017-06-30T01:02:21.034Z,0
2017-06-30T01:03:01.530Z,0
2017-06-30T01:03:42.019Z,0
2017-06-30T01:04:22.508Z,0
2017-06-30T01:05:03.002Z,0
2017-06-30T01:05:43.512Z,0
2017-06-30T01:06:23.985Z,0
2017-06-30T01:07:04.502Z,0
2017-06-30T01:07:45.003Z,0
2017-06-30T01:08:25.500Z,0
2017-06-30T01:09:05.986Z,0
2017-06-30T01:09:46.480Z,0
2017-06-30T01:10:26.967Z,0
2017-06-30T01:11:07.478Z,0
2017-06-30T01:11:47.960Z,0
2017-06-30T01:12:28.455Z,0
2017-06-30T01:13:08.949Z,0
2017-06-30T01:13:49.438Z,0
2017-06-30T01:14:29.909Z,0
2017-06-30T01:15:10.398Z,0
2017-06-30T01:15:50.850Z,0
2017-06-30T01:18:18.782Z,0
2017-06-30T01:18:59.271Z,0
2017-06-30T01:19:39.763Z,0
2017-06-30T01:20:20.255Z,0
2017-06-30T01:21:00.728Z,0
2017-06-30T01:21:41.231Z,0
2017-06-30T01:22:21.731Z,0
2017-06-30T01:23:02.255Z,0
2017-06-30T01:23:42.707Z,0
2017-06-30T01:24:23.210Z,0
2017-06-30T01:25:03.705Z,0
2017-06-30T01:25:44.199Z,0
2017-06-30T01:26:24.683Z,0
2017-06-30T01:27:05.149Z,0
2017-06-30T01:27:45.640Z,0
2017-06-30T01:28:26.139Z,0
2017-06-30T01:29:06.625Z,0
2017-06-30T01:29:47.123Z,0
2017-06-30T01:30:27.616Z,0
2017-06-30T01:31:08.102Z,0
2017-06-30T01:31:48.582Z,0
2017-06-30T01:32:29.072Z,0
2017-06-30T01:33:09.573Z,0
2017-06-30T01:33:50.079Z,0
2017-06-30T01:34:30.557Z,0
2017-06-30T01:35:11.027Z,0
2017-06-30T01:35:51.500Z,0
2017-06-30T01:36:31.985Z,0
2017-06-30T01:37:12.474Z,0
2017-06-30T01:37:52.963Z,0
2017-06-30T01:38:33.422Z,0
2017-06-30T01:39:13.884Z,0
2017-06-30T01:39:54.348Z,0
2017-06-30T01:40:34.791Z,0
2017-06-30T01:41:15.249Z,0
2017-06-30T01:41:55.721Z,0
2017-06-30T01:42:36.166Z,0
2017-06-30T01:43:16.632Z,0
2017-06-30T01:43:57.117Z,0
2017-06-30T01:44:37.637Z,0
2017-06-30T01:45:18.114Z,0
2017-06-30T01:45:58.598Z,0
2017-06-30T01:46:39.085Z,0
2017-06-30T01:47:19.552Z,0
2017-06-30T01:48:00.005Z,0
2017-06-30T01:48:40.467Z,0
2017-06-30T01:49:20.912Z,0
2017-06-30T01:51:33.617Z,0
2017-06-30T01:52:14.125Z,0
2017-06-30T01:52:54.588Z,0
2017-06-30T01:53:35.085Z,0
2017-06-30T01:54:15.558Z,0
2017-06-30T01:54:55.999Z,0
2017-06-30T01:55:36.509Z,0
2017-06-30T01:57:34.130Z,0
2017-06-30T01:58:14.606Z,0
2017-06-30T01:58:55.086Z,0
2017-06-30T02:01:23.005Z,0
2017-06-30T02:02:03.481Z,0
2017-06-30T02:02:43.973Z,0
2017-06-30T02:03:24.463Z,0
2017-06-30T02:04:04.969Z,0
2017-06-30T02:04:45.461Z,0
2017-06-30T02:05:25.941Z,0
2017-06-30T02:06:06.436Z,0
2017-06-30T02:06:46.918Z,0
2017-06-30T02:07:27.464Z,0
2017-06-30T02:08:07.953Z,0
2017-06-30T02:08:48.450Z,0
2017-06-30T02:09:28.936Z,0
2017-06-30T02:10:09.430Z,0
2017-06-30T02:10:49.930Z,0
2017-06-30T02:11:30.424Z,0
2017-06-30T02:12:10.914Z,0
2017-06-30T02:12:51.396Z,0
2017-06-30T02:13:31.883Z,0
2017-06-30T02:15:59.785Z,0
2017-06-30T02:16:40.276Z,0
2017-06-30T02:18:37.889Z,0
2017-06-30T02:19:18.380Z,0
2017-06-30T02:19:58.870Z,0
2017-06-30T02:20:39.353Z,0
2017-06-30T02:21:19.824Z,0
2017-06-30T02:22:00.300Z,0
2017-06-30T02:22:40.790Z,0
2017-06-30T02:23:21.285Z,0
2017-06-30T02:24:01.765Z,0
2017-06-30T02:24:42.245Z,0
2017-06-30T02:25:22.742Z,0
2017-06-30T02:26:03.221Z,0
2017-06-30T02:26:43.708Z,0
2017-06-30T02:27:24.202Z,0
2017-06-30T02:28:04.708Z,0
2017-06-30T02:28:45.182Z,0
2017-06-30T02:29:25.683Z,0
2017-06-30T02:30:06.166Z,0
2017-06-30T02:30:46.656Z,0
2017-06-30T02:31:27.153Z,0
2017-06-30T02:32:07.652Z,0
2017-06-30T02:32:48.139Z,0
2017-06-30T02:33:28.623Z,0
2017-06-30T02:34:09.101Z,0
2017-06-30T02:34:49.592Z,0
2017-06-30T02:35:30.082Z,0
2017-06-30T02:36:10.577Z,0
2017-06-30T02:36:51.060Z,0
2017-06-30T02:37:31.535Z,0
2017-06-30T02:38:12.002Z,0
2017-06-30T02:38:52.494Z,0
2017-06-30T02:39:32.999Z,0
2017-06-30T02:40:13.486Z,0
2017-06-30T02:40:53.981Z,0
2017-06-30T02:41:34.466Z,0
2017-06-30T02:42:14.929Z,0
2017-06-30T02:42:55.358Z,0
2017-06-30T02:43:35.814Z,0
2017-06-30T02:44:16.283Z,0
2017-06-30T02:44:56.767Z,0
2017-06-30T02:45:37.233Z,0
2017-06-30T02:46:17.675Z,0
2017-06-30T02:46:58.137Z,0
2017-06-30T02:47:38.609Z,0
2017-06-30T02:49:36.233Z,4
2017-06-30T02:50:16.722Z,4
2017-06-30T02:50:57.203Z,4
2017-06-30T02:51:37.692Z,4
2017-06-30T02:52:18.189Z,4
2017-06-30T02:52:58.679Z,4
2017-06-30T02:53:39.170Z,0
2017-06-30T02:54:19.659Z,4
2017-06-30T02:55:00.161Z,4
2017-06-30T02:55:40.639Z,4
2017-06-30T02:56:21.158Z,4
2017-06-30T02:57:01.637Z,8
2017-06-30T02:57:42.137Z,4
2017-06-30T02:58:22.626Z,8
2017-06-30T02:59:03.112Z,8
2017-06-30T02:59:43.634Z,12
2017-06-30T03:00:24.101Z,8
2017-06-30T03:01:04.589Z,12
2017-06-30T03:01:45.088Z,12
2017-06-30T03:02:25.569Z,12
2017-06-30T03:03:06.072Z,12
2017-06-30T03:03:46.552Z,16
2017-06-30T03:04:27.047Z,16
2017-06-30T03:05:07.543Z,16
2017-06-30T03:05:48.044Z,20
2017-06-30T03:06:28.525Z,20
2017-06-30T03:07:09.022Z,24
2017-06-30T03:07:49.524Z,28
2017-06-30T03:08:30.007Z,28
2017-06-30T03:09:10.498Z,32
2017-06-30T03:09:50.987Z,32
2017-06-30T03:10:31.477Z,36
2017-06-30T03:11:11.942Z,36
2017-06-30T03:11:52.430Z,40
2017-06-30T03:12:32.887Z,44
2017-06-30T03:14:30.542Z,52
2017-06-30T03:15:11.018Z,60
2017-06-30T03:15:51.491Z,60
2017-06-30T03:16:31.977Z,68
2017-06-30T03:17:12.477Z,72
2017-06-30T03:17:52.960Z,76
2017-06-30T03:18:33.461Z,84
2017-06-30T03:19:13.962Z,88
2017-06-30T03:19:54.440Z,92
2017-06-30T03:20:34.936Z,100
2017-06-30T03:23:07.963Z,124
2017-06-30T03:23:48.445Z,128
2017-06-30T03:24:28.938Z,140
2017-06-30T03:25:09.420Z,144
2017-06-30T03:25:49.909Z,152
2017-06-30T03:26:30.389Z,156
2017-06-30T03:27:10.887Z,168
2017-06-30T03:27:51.386Z,176
2017-06-30T03:28:31.870Z,180
2017-06-30T03:29:12.351Z,192
2017-06-30T03:29:52.845Z,200
2017-06-30T03:30:33.358Z,208
2017-06-30T03:31:13.822Z,216
2017-06-30T03:31:54.310Z,228
2017-06-30T03:32:34.793Z,240
2017-06-30T03:33:15.289Z,248
2017-06-30T03:33:55.765Z,260
2017-06-30T03:34:36.257Z,272
2017-06-30T03:35:16.757Z,280
2017-06-30T03:35:57.239Z,288
2017-06-30T03:36:37.740Z,300
2017-06-30T03:37:18.240Z,312
2017-06-30T03:37:58.718Z,320
2017-06-30T03:38:39.209Z,328
2017-06-30T03:39:19.696Z,336
2017-06-30T03:40:00.185Z,348
2017-06-30T03:40:40.666Z,360
2017-06-30T03:41:21.144Z,376
2017-06-30T03:42:01.655Z,388
2017-06-30T03:42:42.130Z,408
2017-06-30T03:43:22.632Z,420
2017-06-30T03:44:03.126Z,432
2017-06-30T03:44:43.609Z,432
2017-06-30T03:45:24.110Z,432
2017-06-30T03:46:04.602Z,424
2017-06-30T03:46:45.097Z,412
2017-06-30T03:47:25.566Z,420
2017-06-30T03:48:06.072Z,440
2017-06-30T03:48:46.569Z,464
2017-06-30T03:51:19.560Z,508
2017-06-30T03:52:00.065Z,528
2017-06-30T03:52:40.516Z,544
2017-06-30T03:53:20.986Z,560
2017-06-30T03:54:01.475Z,576
2017-06-30T03:54:41.960Z,584
2017-06-30T03:55:22.477Z,596
2017-06-30T03:56:02.933Z,612
2017-06-30T03:56:43.446Z,624
2017-06-30T03:57:23.915Z,640
2017-06-30T03:58:04.404Z,656
2017-06-30T03:58:44.913Z,668
2017-06-30T03:59:25.458Z,680
2017-06-30T04:00:05.863Z,704
2017-06-30T04:00:46.378Z,736
2017-06-30T04:01:26.847Z,744
2017-06-30T04:02:07.343Z,744
2017-06-30T04:02:47.831Z,756
2017-06-30T04:03:28.332Z,776
2017-06-30T04:04:08.823Z,796
2017-06-30T04:04:49.319Z,824
2017-06-30T04:05:29.823Z,840
2017-06-30T04:06:10.314Z,856
2017-06-30T04:06:51.768Z,876
2017-06-30T04:07:32.258Z,908
2017-06-30T04:08:12.765Z,944
2017-06-30T04:08:53.254Z,992
2017-06-30T04:09:33.748Z,1036
2017-06-30T04:10:14.250Z,1072
2017-06-30T04:10:54.734Z,1168
2017-06-30T04:11:35.224Z,1212
2017-06-30T04:12:15.708Z,1208
2017-06-30T04:12:56.197Z,1188
2017-06-30T04:13:36.668Z,1204
2017-06-30T04:14:17.163Z,1236
2017-06-30T04:14:57.652Z,1260
2017-06-30T04:15:38.138Z,1288
2017-06-30T04:16:18.649Z,1320
2017-06-30T04:16:59.150Z,1344
2017-06-30T04:17:39.620Z,1384
2017-06-30T04:18:20.054Z,1396
2017-06-30T04:20:37.853Z,1420
2017-06-30T04:21:18.928Z,1416
2017-06-30T04:21:59.437Z,1416
2017-06-30T04:22:39.909Z,1436
2017-06-30T04:23:20.395Z,1440
2017-06-30T04:24:00.882Z,1444
2017-06-30T04:24:41.386Z,1468
2017-06-30T04:25:21.870Z,1472
2017-06-30T04:26:02.409Z,1492
2017-06-30T04:26:42.860Z,1520
2017-06-30T04:27:23.344Z,1552
2017-06-30T04:28:03.815Z,1652
2017-06-30T04:28:44.293Z,1676
2017-06-30T04:29:24.796Z,1704
2017-06-30T04:30:05.282Z,1720
2017-06-30T04:30:45.799Z,1732
2017-06-30T04:31:26.276Z,1720
2017-06-30T04:32:06.760Z,1736
2017-06-30T04:32:47.266Z,1768
2017-06-30T04:33:27.734Z,1784
2017-06-30T04:35:25.355Z,2020
2017-06-30T04:36:05.832Z,2112
2017-06-30T04:36:46.326Z,2152
2017-06-30T04:37:26.822Z,2164
2017-06-30T04:38:07.306Z,2284
2017-06-30T04:38:47.811Z,2592
2017-06-30T04:39:28.281Z,3196
2017-06-30T04:40:08.768Z,3812
2017-06-30T04:40:49.245Z,3936
2017-06-30T04:41:29.759Z,3872
2017-06-30T04:42:10.244Z,3908
2017-06-30T04:42:50.718Z,2856
2017-06-30T04:43:31.206Z,2852
2017-06-30T04:44:11.695Z,2844
2017-06-30T04:44:52.189Z,2760
2017-06-30T04:45:32.671Z,2824
2017-06-30T04:46:13.186Z,2664
2017-06-30T04:46:53.653Z,2412
2017-06-30T04:47:34.131Z,2384
2017-06-30T04:48:14.622Z,2392
2017-06-30T04:48:55.115Z,2276
2017-06-30T04:49:35.600Z,2156
2017-06-30T04:50:16.103Z,2112
2017-06-30T04:50:56.593Z,2136
2017-06-30T04:51:37.081Z,2168
2017-06-30T04:52:17.560Z,2196
2017-06-30T04:52:58.007Z,2180
2017-06-30T04:53:38.505Z,2164
2017-06-30T04:54:18.993Z,2124
2017-06-30T04:54:59.452Z,2204
2017-06-30T04:55:39.935Z,2324
2017-06-30T04:56:20.449Z,2352
2017-06-30T04:57:00.938Z,2408
2017-06-30T04:57:41.416Z,2180
2017-06-30T04:58:21.916Z,2340
2017-06-30T04:59:02.401Z,2296
2017-06-30T04:59:42.862Z,2572
2017-06-30T05:02:10.770Z,3000
2017-06-30T05:02:51.285Z,2844
2017-06-30T05:03:31.806Z,2808
2017-06-30T05:04:12.300Z,3248
2017-06-30T05:04:52.835Z,3092
2017-06-30T05:05:33.338Z,2616
2017-06-30T05:06:13.820Z,2384
2017-06-30T05:06:54.307Z,2152
2017-06-30T05:07:34.826Z,2056
2017-06-30T05:08:15.489Z,2024
2017-06-30T05:08:55.782Z,2088
2017-06-30T05:09:36.289Z,2328
2017-06-30T05:10:16.769Z,2612
2017-06-30T05:10:57.247Z,3072
2017-06-30T05:11:37.739Z,3492
2017-06-30T05:12:18.221Z,3976
2017-06-30T05:12:58.706Z,3972
2017-06-30T05:13:39.184Z,3736
2017-06-30T05:14:19.647Z,3944
2017-06-30T05:16:17.313Z,4528
2017-06-30T05:16:57.799Z,4488
2017-06-30T05:17:38.302Z,4416
2017-06-30T05:18:18.780Z,4020
2017-06-30T05:18:59.262Z,3516
2017-06-30T05:19:39.800Z,3324
2017-06-30T05:20:20.280Z,3352
2017-06-30T05:21:00.763Z,3788
2017-06-30T05:21:41.274Z,4044
2017-06-30T05:22:21.828Z,3828
2017-06-30T05:23:02.230Z,3444
2017-06-30T05:23:42.735Z,2852
2017-06-30T05:24:24.181Z,2764
2017-06-30T05:25:04.681Z,2696
2017-06-30T05:25:45.151Z,2824
2017-06-30T05:26:25.648Z,3240
2017-06-30T05:27:06.168Z,3372
2017-06-30T05:27:46.702Z,3244
2017-06-30T05:28:27.229Z,3256
2017-06-30T05:29:07.729Z,3392
2017-06-30T05:29:48.224Z,3864
2017-06-30T05:30:28.692Z,4668
2017-06-30T05:31:09.196Z,5760
2017-06-30T05:31:49.687Z,6476
2017-06-30T05:32:30.165Z,6092
2017-06-30T05:33:10.672Z,4952
2017-06-30T05:33:51.165Z,4324
2017-06-30T05:34:31.658Z,4212
2017-06-30T05:35:12.148Z,4412
2017-06-30T05:35:52.700Z,4216
2017-06-30T05:36:33.181Z,4100
2017-06-30T05:37:13.753Z,4536
2017-06-30T05:37:54.154Z,5012
2017-06-30T05:38:34.678Z,5596
2017-06-30T05:39:15.146Z,6500
2017-06-30T05:39:55.612Z,7020
2017-06-30T05:40:36.100Z,7172
2017-06-30T05:41:16.604Z,7192
2017-06-30T05:41:57.095Z,6992
2017-06-30T05:42:37.559Z,7572
2017-06-30T05:43:18.072Z,7028
2017-06-30T05:43:58.554Z,6620
2017-06-30T05:44:39.020Z,5756
2017-06-30T05:45:19.524Z,5420
2017-06-30T05:46:00.032Z,4848
2017-06-30T05:46:40.528Z,4596
2017-06-30T05:47:21.005Z,4640
2017-06-30T05:48:01.505Z,5092
2017-06-30T05:48:41.956Z,5676
2017-06-30T05:51:09.890Z,5216
2017-06-30T05:51:50.383Z,5220
2017-06-30T05:52:30.897Z,5264
2017-06-30T05:53:11.379Z,6044
2017-06-30T05:53:51.883Z,7152
2017-06-30T05:54:32.374Z,10460
2017-06-30T05:55:12.867Z,15664
2017-06-30T05:55:53.385Z,15716
2017-06-30T05:56:33.857Z,17728
2017-06-30T05:57:14.321Z,18784
2017-06-30T05:57:54.793Z,18304
2017-06-30T05:58:35.294Z,16608
2017-06-30T05:59:15.774Z,17472
2017-06-30T06:01:28.504Z,7664
2017-06-30T06:02:08.989Z,7340
2017-06-30T06:02:49.483Z,6124
2017-06-30T06:03:29.997Z,5948
2017-06-30T06:04:10.496Z,7172
2017-06-30T06:04:50.992Z,17408
2017-06-30T06:05:31.490Z,17792
2017-06-30T06:06:11.982Z,18688
2017-06-30T06:06:52.480Z,20256
2017-06-30T06:07:32.955Z,16896
2017-06-30T06:08:13.414Z,24864
2017-06-30T06:08:53.916Z,26400
2017-06-30T06:09:34.404Z,17376
2017-06-30T06:10:14.896Z,15472
2017-06-30T06:10:55.374Z,11692
2017-06-30T06:11:35.864Z,11608
2017-06-30T06:12:16.365Z,11728
2017-06-30T06:12:56.842Z,12536
2017-06-30T06:13:37.336Z,11032
2017-06-30T06:14:17.841Z,10080
2017-06-30T06:14:58.335Z,9544
2017-06-30T06:15:38.840Z,14320
2017-06-30T06:18:06.803Z,7356
2017-06-30T06:18:47.236Z,20832
2017-06-30T06:19:27.745Z,20576
2017-06-30T06:20:08.230Z,20288
2017-06-30T06:20:48.726Z,20000
2017-06-30T06:21:29.225Z,20480
2017-06-30T06:22:09.716Z,20896
2017-06-30T06:22:50.195Z,21568
2017-06-30T06:23:30.683Z,21792
2017-06-30T06:25:48.510Z,19904
2017-06-30T06:26:29.015Z,18528
2017-06-30T06:27:09.499Z,18336
2017-06-30T06:27:50.051Z,19584
2017-06-30T06:28:30.542Z,23392
2017-06-30T06:29:11.031Z,24160
2017-06-30T06:29:51.535Z,24736
2017-06-30T06:30:32.031Z,28320
2017-06-30T06:31:12.505Z,27264
2017-06-30T06:31:52.983Z,26880
2017-06-30T06:34:05.758Z,29760
2017-06-30T06:34:46.269Z,30944
2017-06-30T06:35:26.786Z,32640
2017-06-30T06:36:07.273Z,34048
2017-06-30T06:36:47.771Z,32992
2017-06-30T06:37:28.285Z,33344
2017-06-30T06:38:08.818Z,6784
2017-06-30T06:38:49.296Z,7016
2017-06-30T06:39:29.790Z,33568
2017-06-30T06:40:10.322Z,33408
2017-06-30T06:40:50.768Z,32704
2017-06-30T06:41:31.257Z,32064
2017-06-30T06:42:11.733Z,31232
2017-06-30T06:42:52.227Z,30656
2017-06-30T06:43:32.718Z,30816
2017-06-30T06:44:13.213Z,32064
2017-06-30T06:44:53.727Z,43488
2017-06-30T06:45:34.210Z,60928
2017-06-30T06:46:14.726Z,74272
2017-06-30T06:46:55.215Z,83392
2017-06-30T06:47:35.706Z,83488
2017-06-30T06:48:16.184Z,75680
2017-06-30T06:48:56.686Z,66048
2017-06-30T06:49:37.176Z,53344
2017-06-30T06:50:17.671Z,48160
2017-06-30T06:50:58.167Z,51136
2017-06-30T06:51:38.659Z,53728
2017-06-30T06:52:19.118Z,49088
2017-06-30T06:52:59.620Z,43520
2017-06-30T06:53:40.096Z,40192
2017-06-30T06:54:20.631Z,41376
2017-06-30T06:55:01.120Z,42112
2017-06-30T06:55:41.578Z,32704
2017-06-30T06:56:22.063Z,40544
2017-06-30T06:57:02.597Z,41376
2017-06-30T06:57:43.090Z,42976
2017-06-30T06:58:23.596Z,43680
2017-06-30T06:59:04.073Z,41504
2017-06-30T06:59:44.581Z,39360
2017-06-30T07:00:25.104Z,7888
2017-06-30T07:01:05.541Z,40640
2017-06-30T07:03:03.193Z,39328
2017-06-30T07:03:43.691Z,45312
2017-06-30T07:04:24.171Z,51424
2017-06-30T07:05:04.619Z,56128
2017-06-30T07:07:02.270Z,56928
2017-06-30T07:07:42.757Z,57568
2017-06-30T07:08:23.295Z,60704
2017-06-30T07:09:03.756Z,43776
2017-06-30T07:09:44.261Z,39296
2017-06-30T07:10:24.760Z,53888
2017-06-30T07:11:05.235Z,55488
2017-06-30T07:11:45.728Z,11412
2017-06-30T07:12:26.203Z,59680
2017-06-30T07:13:06.717Z,63392
2017-06-30T07:13:47.202Z,63072
2017-06-30T07:14:27.707Z,29024
2017-06-30T07:15:08.245Z,63712
2017-06-30T07:15:48.784Z,61952
2017-06-30T07:16:29.308Z,63616
2017-06-30T07:17:09.817Z,62528
2017-06-30T07:17:50.317Z,63104
2017-06-30T07:18:30.871Z,65376
2017-06-30T07:19:11.371Z,65696
2017-06-30T07:19:51.813Z,66208
2017-06-30T07:20:32.273Z,68064
2017-06-30T07:21:12.732Z,70176
2017-06-30T07:23:40.709Z,66720
2017-06-30T07:24:21.777Z,69344
2017-06-30T07:25:02.266Z,71872
2017-06-30T07:25:42.836Z,71904
2017-06-30T07:26:23.337Z,72928
2017-06-30T07:27:03.838Z,68864
2017-06-30T07:27:44.339Z,59104
2017-06-30T07:28:24.847Z,45152
2017-06-30T07:29:05.331Z,36960
2017-06-30T07:29:45.810Z,13564
2017-06-30T07:30:26.294Z,5952
2017-06-30T07:31:06.802Z,8768
2017-06-30T07:31:47.298Z,19776
2017-06-30T07:32:27.802Z,19968
2017-06-30T07:33:08.277Z,19264
2017-06-30T07:33:48.783Z,10316
2017-06-30T07:34:29.248Z,10372
2017-06-30T07:35:09.761Z,12520
2017-06-30T07:35:50.264Z,22656
2017-06-30T07:36:30.732Z,22880
2017-06-30T07:37:11.235Z,22432
2017-06-30T07:37:51.726Z,21952
2017-06-30T07:38:32.214Z,21120
2017-06-30T07:39:12.715Z,11012
2017-06-30T07:39:53.243Z,11060
2017-06-30T07:40:33.738Z,16868
2017-06-30T07:41:14.235Z,19360
2017-06-30T07:41:54.776Z,15184
2017-06-30T07:42:35.279Z,21536
2017-06-30T07:43:15.775Z,21344
2017-06-30T07:43:56.287Z,21888
2017-06-30T07:44:37.519Z,22688
2017-06-30T07:45:18.056Z,25536
2017-06-30T07:45:58.556Z,18144
2017-06-30T07:46:39.073Z,23680
2017-06-30T07:47:19.586Z,23648
2017-06-30T07:49:52.700Z,18880
2017-06-30T07:50:33.149Z,7396
2017-06-30T07:51:13.700Z,16244
2017-06-30T07:53:41.637Z,15520
2017-06-30T07:54:22.107Z,15676
2017-06-30T07:55:02.641Z,14880
2017-06-30T07:55:43.175Z,13804
2017-06-30T07:56:23.758Z,14840
2017-06-30T07:57:05.264Z,15272
2017-06-30T07:57:45.788Z,16268
2017-06-30T07:58:26.297Z,15944
2017-06-30T07:59:06.834Z,16908
2017-06-30T07:59:47.383Z,15412
2017-06-30T08:00:27.864Z,14796
2017-06-30T08:01:08.364Z,14796
2017-06-30T08:01:48.879Z,16760
2017-06-30T08:02:29.342Z,13120
2017-06-30T08:03:09.843Z,20384
2017-06-30T08:03:50.304Z,21376
2017-06-30T08:04:30.821Z,21600
2017-06-30T08:05:11.322Z,17920
2017-06-30T08:05:51.805Z,11936
2017-06-30T08:06:32.281Z,22464
2017-06-30T08:07:12.762Z,14388
2017-06-30T08:07:53.267Z,23552
2017-06-30T08:08:33.741Z,10272
2017-06-30T08:09:14.218Z,23072
2017-06-30T08:09:54.740Z,15396
2017-06-30T08:10:35.194Z,16672
2017-06-30T08:12:53.093Z,15208
2017-06-30T08:13:33.562Z,14648
2017-06-30T08:14:14.080Z,82208
2017-06-30T08:14:54.543Z,86560
2017-06-30T08:15:35.046Z,21504
2017-06-30T08:16:15.525Z,85088
2017-06-30T08:16:56.027Z,90464
2017-06-30T08:17:36.526Z,91872
2017-06-30T08:18:17.061Z,86464
2017-06-30T08:18:57.577Z,59424
2017-06-30T08:19:38.082Z,67936
2017-06-30T08:20:18.556Z,51424
2017-06-30T08:20:59.076Z,34080
2017-06-30T08:21:39.559Z,15712
2017-06-30T08:22:20.041Z,23808
2017-06-30T08:23:00.554Z,23968
2017-06-30T08:23:41.061Z,10864
2017-06-30T08:24:21.560Z,24192
2017-06-30T08:25:02.067Z,22560
2017-06-30T08:25:42.567Z,22112
2017-06-30T08:26:23.133Z,22464
2017-06-30T08:27:03.662Z,22720
2017-06-30T08:27:44.170Z,23008
2017-06-30T08:28:24.651Z,23776
2017-06-30T08:29:05.124Z,24256
2017-06-30T08:31:33.093Z,48128
2017-06-30T08:32:13.670Z,71328
2017-06-30T08:32:54.164Z,89280
2017-06-30T08:33:34.692Z,89952
2017-06-30T08:34:15.174Z,91424
2017-06-30T08:34:55.677Z,98304
2017-06-30T08:35:36.196Z,102240
2017-06-30T08:36:16.707Z,109056
2017-06-30T08:36:57.213Z,87392
2017-06-30T08:37:37.695Z,107200
2017-06-30T08:38:18.200Z,102816
2017-06-30T08:38:58.655Z,99712
2017-06-30T08:39:39.143Z,99328
2017-06-30T08:40:19.614Z,102944
2017-06-30T08:41:00.112Z,101888
2017-06-30T08:41:40.579Z,104352
2017-06-30T08:42:21.057Z,106656
2017-06-30T08:43:01.539Z,18944
2017-06-30T08:43:42.025Z,88832
2017-06-30T08:44:22.486Z,96992
2017-06-30T08:46:50.435Z,110944
2017-06-30T08:47:30.947Z,112064
2017-06-30T08:48:11.426Z,113088
2017-06-30T08:48:51.926Z,18016
2017-06-30T08:49:32.410Z,118368
2017-06-30T08:50:12.898Z,13428
2017-06-30T08:50:53.429Z,15436
2017-06-30T08:51:33.916Z,12136
2017-06-30T08:52:14.410Z,16008
2017-06-30T08:52:54.895Z,12412
2017-06-30T08:53:35.375Z,22016
2017-06-30T08:54:15.903Z,10916
2017-06-30T08:54:56.379Z,11244
2017-06-30T08:55:36.884Z,38976
2017-06-30T08:56:17.384Z,21056
2017-06-30T08:56:57.928Z,36992
2017-06-30T08:57:38.398Z,37472
2017-06-30T08:58:18.862Z,37600
2017-06-30T09:00:46.868Z,20128
2017-06-30T09:01:27.316Z,41856
2017-06-30T09:02:07.812Z,15168
2017-06-30T09:02:48.295Z,45952
2017-06-30T09:03:28.788Z,53440
2017-06-30T09:04:09.348Z,79904
2017-06-30T09:04:49.886Z,20832
2017-06-30T09:05:30.358Z,147296
2017-06-30T09:06:10.840Z,62016
2017-06-30T09:06:51.344Z,156384
2017-06-30T09:07:31.859Z,9700
2017-06-30T09:08:12.414Z,9452
2017-06-30T09:08:52.953Z,136192
2017-06-30T09:09:33.507Z,130656
2017-06-30T09:10:13.971Z,111776
2017-06-30T09:10:54.464Z,15292
2017-06-30T09:11:35.009Z,13100
2017-06-30T09:12:15.470Z,9504
2017-06-30T09:12:55.983Z,64032
2017-06-30T09:13:36.440Z,19808
2017-06-30T09:14:16.930Z,125600
2017-06-30T09:14:57.437Z,122816
2017-06-30T09:15:37.940Z,120000
2017-06-30T09:18:06.284Z,20672
2017-06-30T09:18:46.743Z,129152
2017-06-30T09:19:27.239Z,14104
2017-06-30T09:20:07.782Z,30240
2017-06-30T09:20:48.311Z,11880
2017-06-30T09:21:28.790Z,28672
2017-06-30T09:22:09.254Z,29056
2017-06-30T09:22:49.767Z,55840
2017-06-30T09:23:30.257Z,13940
2017-06-30T09:24:10.745Z,15332
2017-06-30T09:24:51.262Z,121248
2017-06-30T09:25:31.735Z,79872
2017-06-30T09:26:12.254Z,78144
2017-06-30T09:26:52.763Z,22400
2017-06-30T09:27:33.265Z,15968
2017-06-30T09:28:13.812Z,13704
2017-06-30T09:28:54.327Z,13972
2017-06-30T09:29:34.796Z,47744
2017-06-30T09:31:32.459Z,40704
2017-06-30T09:32:12.935Z,112832
2017-06-30T09:32:53.553Z,111072
2017-06-30T09:33:34.077Z,23808
2017-06-30T09:35:51.882Z,12748
2017-06-30T09:36:32.434Z,12884
2017-06-30T09:37:12.889Z,15308
2017-06-30T09:37:53.372Z,114272
2017-06-30T09:38:33.849Z,85184
2017-06-30T09:39:14.339Z,13412
2017-06-30T09:39:54.824Z,12864
2017-06-30T09:40:35.296Z,13332
2017-06-30T09:41:15.794Z,12324
2017-06-30T09:41:56.239Z,10980
2017-06-30T09:42:36.762Z,11576
2017-06-30T09:44:34.489Z,13176
2017-06-30T09:45:14.972Z,10680
2017-06-30T09:45:55.418Z,11668
2017-06-30T09:46:35.946Z,13428
2017-06-30T09:47:16.436Z,18560
2017-06-30T09:47:56.964Z,18944
2017-06-30T09:48:37.450Z,14448
2017-06-30T09:49:17.964Z,13908
2017-06-30T09:49:58.455Z,28352
2017-06-30T09:50:38.964Z,25952
2017-06-30T09:51:19.456Z,23424
2017-06-30T09:51:59.987Z,23744
2017-06-30T09:52:40.492Z,23904
2017-06-30T09:53:20.969Z,23680
2017-06-30T09:54:01.423Z,23584
2017-06-30T09:54:41.926Z,22112
2017-06-30T09:55:22.341Z,22592
2017-06-30T09:56:02.822Z,21376
2017-06-30T09:56:43.263Z,21664
2017-06-30T09:58:40.943Z,26368
2017-06-30T09:59:21.457Z,11676
2017-06-30T10:00:01.929Z,9848
2017-06-30T10:00:42.409Z,21984
2017-06-30T10:01:22.917Z,21216
2017-06-30T10:02:03.407Z,22080
2017-06-30T10:02:43.902Z,15360
2017-06-30T10:03:24.422Z,15696
2017-06-30T10:04:04.910Z,22656
2017-06-30T10:04:45.402Z,23904
2017-06-30T10:05:25.895Z,28544
2017-06-30T10:06:06.355Z,22432
2017-06-30T10:06:46.848Z,27424
2017-06-30T10:09:04.699Z,14680
2017-06-30T10:09:45.887Z,15228